sensor_id;sensor_type;location;lat;lon;timestamp;P1;durP1;ratioP1;P2;durP2;ratioP2
29380;SDS011;16364;52.490;13.326;2022-11-15T00:02:17;42.40;;;26.67;;
29380;SDS011;16364;52.490;13.326;2022-11-15T00:04:42;40.00;;;24.57;;
29380;SDS011;16364;52.490;13.326;2022-11-15T00:07:07;44.07;;;26.23;;
29380;SDS011;16364;52.490;13.326;2022-11-15T00:09:32;46.83;;;26.77;;
29380;SDS011;16364;52.490;13.326;2022-11-15T00:11:58;45.53;;;26.90;;
29380;SDS011;16364;52.490;13.326;2022-11-15T00:14:23;48.70;;;26.70;;
29380;SDS011;16364;52.490;13.326;2022-11-15T00:16:48;43.30;;;26.40;;
29380;SDS011;16364;52.490;13.326;2022-11-15T00:22:16;42.70;;;26.63;;
29380;SDS011;16364;52.490;13.326;2022-11-15T00:24:41;40.93;;;25.37;;
29380;SDS011;16364;52.490;13.326;2022-11-15T00:27:07;42.60;;;25.23;;
29380;SDS011;16364;52.490;13.326;2022-11-15T00:29:32;41.70;;;27.30;;
29380;SDS011;16364;52.490;13.326;2022-11-15T00:31:58;46.80;;;27.57;;
29380;SDS011;16364;52.490;13.326;2022-11-15T00:34:23;40.07;;;25.87;;
29380;SDS011;16364;52.490;13.326;2022-11-15T00:36:48;40.23;;;25.33;;
29380;SDS011;16364;52.490;13.326;2022-11-15T00:39:13;39.70;;;25.93;;
29380;SDS011;16364;52.490;13.326;2022-11-15T00:41:39;42.70;;;25.87;;
29380;SDS011;16364;52.490;13.326;2022-11-15T00:44:04;44.10;;;26.90;;
29380;SDS011;16364;52.490;13.326;2022-11-15T00:46:29;51.00;;;27.20;;
29380;SDS011;16364;52.490;13.326;2022-11-15T00:48:54;42.97;;;26.23;;
29380;SDS011;16364;52.490;13.326;2022-11-15T00:51:19;43.00;;;26.83;;
29380;SDS011;16364;52.490;13.326;2022-11-15T00:53:45;47.73;;;27.77;;
29380;SDS011;16364;52.490;13.326;2022-11-15T00:56:10;44.63;;;26.30;;
29380;SDS011;16364;52.490;13.326;2022-11-15T00:58:35;38.60;;;24.50;;
29380;SDS011;16364;52.490;13.326;2022-11-15T01:01:08;46.17;;;25.17;;
29380;SDS011;16364;52.490;13.326;2022-11-15T01:03:33;47.40;;;27.97;;
29380;SDS011;16364;52.490;13.326;2022-11-15T01:05:59;43.20;;;26.00;;
29380;SDS011;16364;52.490;13.326;2022-11-15T01:08:25;44.37;;;28.13;;
29380;SDS011;16364;52.490;13.326;2022-11-15T01:10:50;45.20;;;28.17;;
29380;SDS011;16364;52.490;13.326;2022-11-15T01:13:15;41.80;;;26.53;;
29380;SDS011;16364;52.490;13.326;2022-11-15T01:15:40;51.50;;;28.57;;
29380;SDS011;16364;52.490;13.326;2022-11-15T01:18:06;41.10;;;26.43;;
29380;SDS011;16364;52.490;13.326;2022-11-15T01:20:31;42.20;;;26.47;;
29380;SDS011;16364;52.490;13.326;2022-11-15T01:22:56;49.97;;;28.07;;
29380;SDS011;16364;52.490;13.326;2022-11-15T01:25:22;45.47;;;28.23;;
29380;SDS011;16364;52.490;13.326;2022-11-15T01:27:47;43.13;;;27.17;;
29380;SDS011;16364;52.490;13.326;2022-11-15T01:30:12;40.53;;;25.30;;
29380;SDS011;16364;52.490;13.326;2022-11-15T01:32:37;44.73;;;27.03;;
29380;SDS011;16364;52.490;13.326;2022-11-15T01:35:03;40.53;;;26.67;;
29380;SDS011;16364;52.490;13.326;2022-11-15T01:37:28;45.70;;;28.07;;
29380;SDS011;16364;52.490;13.326;2022-11-15T01:39:53;44.67;;;27.87;;
29380;SDS011;16364;52.490;13.326;2022-11-15T01:42:18;45.03;;;27.17;;
29380;SDS011;16364;52.490;13.326;2022-11-15T01:44:46;46.67;;;26.23;;
29380;SDS011;16364;52.490;13.326;2022-11-15T01:47:16;43.63;;;26.93;;
29380;SDS011;16364;52.490;13.326;2022-11-15T01:49:55;44.10;;;25.93;;
29380;SDS011;16364;52.490;13.326;2022-11-15T01:52:24;49.70;;;29.20;;
29380;SDS011;16364;52.490;13.326;2022-11-15T01:54:50;48.30;;;25.73;;
29380;SDS011;16364;52.490;13.326;2022-11-15T01:57:16;50.67;;;27.73;;
29380;SDS011;16364;52.490;13.326;2022-11-15T01:59:42;47.30;;;27.03;;
29380;SDS011;16364;52.490;13.326;2022-11-15T02:02:08;44.57;;;26.17;;
29380;SDS011;16364;52.490;13.326;2022-11-15T02:04:35;47.53;;;27.20;;
29380;SDS011;16364;52.490;13.326;2022-11-15T02:07:01;45.50;;;28.53;;
29380;SDS011;16364;52.490;13.326;2022-11-15T02:09:28;47.37;;;27.00;;
29380;SDS011;16364;52.490;13.326;2022-11-15T02:11:53;44.80;;;26.47;;
29380;SDS011;16364;52.490;13.326;2022-11-15T02:14:19;42.63;;;25.10;;
29380;SDS011;16364;52.490;13.326;2022-11-15T02:32:21;42.53;;;26.80;;
29380;SDS011;16364;52.490;13.326;2022-11-15T02:37:30;44.60;;;28.03;;
29380;SDS011;16364;52.490;13.326;2022-11-15T02:39:59;47.43;;;27.20;;
29380;SDS011;16364;52.490;13.326;2022-11-15T02:42:28;49.73;;;27.33;;
29380;SDS011;16364;52.490;13.326;2022-11-15T02:45:17;45.43;;;26.67;;
29380;SDS011;16364;52.490;13.326;2022-11-15T02:47:44;44.63;;;28.80;;
29380;SDS011;16364;52.490;13.326;2022-11-15T02:50:11;46.93;;;28.60;;
29380;SDS011;16364;52.490;13.326;2022-11-15T02:52:36;46.93;;;27.63;;
29380;SDS011;16364;52.490;13.326;2022-11-15T02:55:02;49.47;;;27.97;;
29380;SDS011;16364;52.490;13.326;2022-11-15T02:57:51;46.10;;;26.80;;
29380;SDS011;16364;52.490;13.326;2022-11-15T03:00:14;42.63;;;28.03;;
29380;SDS011;16364;52.490;13.326;2022-11-15T03:05:12;48.30;;;26.07;;
29380;SDS011;16364;52.490;13.326;2022-11-15T03:07:51;45.13;;;26.40;;
29380;SDS011;16364;52.490;13.326;2022-11-15T03:12:57;48.87;;;27.13;;
29380;SDS011;16364;52.490;13.326;2022-11-15T03:15:31;46.03;;;28.10;;
29380;SDS011;16364;52.490;13.326;2022-11-15T03:20:22;46.50;;;27.17;;
29380;SDS011;16364;52.490;13.326;2022-11-15T03:22:48;46.33;;;27.93;;
29380;SDS011;16364;52.490;13.326;2022-11-15T03:25:19;50.23;;;29.17;;
29380;SDS011;16364;52.490;13.326;2022-11-15T03:27:47;46.90;;;28.60;;
29380;SDS011;16364;52.490;13.326;2022-11-15T03:30:14;46.50;;;27.40;;
29380;SDS011;16364;52.490;13.326;2022-11-15T03:32:41;50.13;;;28.20;;
29380;SDS011;16364;52.490;13.326;2022-11-15T03:35:11;44.53;;;26.53;;
29380;SDS011;16364;52.490;13.326;2022-11-15T03:37:42;47.10;;;28.50;;
29380;SDS011;16364;52.490;13.326;2022-11-15T03:40:09;46.17;;;27.13;;
29380;SDS011;16364;52.490;13.326;2022-11-15T03:42:59;44.73;;;26.73;;
29380;SDS011;16364;52.490;13.326;2022-11-15T03:45:25;46.03;;;26.33;;
29380;SDS011;16364;52.490;13.326;2022-11-15T03:47:53;49.83;;;28.77;;
29380;SDS011;16364;52.490;13.326;2022-11-15T03:50:19;45.03;;;26.97;;
29380;SDS011;16364;52.490;13.326;2022-11-15T03:52:46;46.70;;;26.70;;
29380;SDS011;16364;52.490;13.326;2022-11-15T03:55:13;44.90;;;26.30;;
29380;SDS011;16364;52.490;13.326;2022-11-15T03:57:38;50.13;;;27.00;;
29380;SDS011;16364;52.490;13.326;2022-11-15T04:00:04;46.93;;;27.63;;
29380;SDS011;16364;52.490;13.326;2022-11-15T04:02:29;43.60;;;25.60;;
29380;SDS011;16364;52.490;13.326;2022-11-15T04:04:55;45.23;;;27.20;;
29380;SDS011;16364;52.490;13.326;2022-11-15T04:07:20;47.37;;;25.87;;
29380;SDS011;16364;52.490;13.326;2022-11-15T04:09:45;47.67;;;26.80;;
29380;SDS011;16364;52.490;13.326;2022-11-15T04:12:29;45.37;;;27.07;;
29380;SDS011;16364;52.490;13.326;2022-11-15T04:15:01;49.03;;;27.80;;
29380;SDS011;16364;52.490;13.326;2022-11-15T04:17:32;48.43;;;27.60;;
29380;SDS011;16364;52.490;13.326;2022-11-15T04:19:57;49.53;;;27.37;;
29380;SDS011;16364;52.490;13.326;2022-11-15T04:22:41;45.70;;;27.80;;
29380;SDS011;16364;52.490;13.326;2022-11-15T04:25:25;45.13;;;25.47;;
29380;SDS011;16364;52.490;13.326;2022-11-15T04:27:50;49.40;;;27.67;;
29380;SDS011;16364;52.490;13.326;2022-11-15T04:30:15;50.50;;;26.57;;
29380;SDS011;16364;52.490;13.326;2022-11-15T04:32:40;46.07;;;26.27;;
29380;SDS011;16364;52.490;13.326;2022-11-15T04:35:06;54.73;;;28.50;;
29380;SDS011;16364;52.490;13.326;2022-11-15T04:37:31;50.50;;;26.80;;
29380;SDS011;16364;52.490;13.326;2022-11-15T04:39:56;47.00;;;29.20;;
29380;SDS011;16364;52.490;13.326;2022-11-15T04:42:21;48.63;;;27.67;;
29380;SDS011;16364;52.490;13.326;2022-11-15T04:44:47;46.57;;;25.93;;
29380;SDS011;16364;52.490;13.326;2022-11-15T04:47:12;46.77;;;26.43;;
29380;SDS011;16364;52.490;13.326;2022-11-15T04:49:37;49.47;;;25.50;;
29380;SDS011;16364;52.490;13.326;2022-11-15T04:52:02;49.70;;;27.60;;
29380;SDS011;16364;52.490;13.326;2022-11-15T04:54:28;43.73;;;25.80;;
29380;SDS011;16364;52.490;13.326;2022-11-15T04:56:53;43.43;;;24.67;;
29380;SDS011;16364;52.490;13.326;2022-11-15T04:59:18;40.80;;;24.60;;
29380;SDS011;16364;52.490;13.326;2022-11-15T05:01:44;47.27;;;26.20;;
29380;SDS011;16364;52.490;13.326;2022-11-15T05:04:09;39.07;;;26.83;;
29380;SDS011;16364;52.490;13.326;2022-11-15T05:06:47;43.60;;;24.33;;
29380;SDS011;16364;52.490;13.326;2022-11-15T05:09:12;45.67;;;26.33;;
29380;SDS011;16364;52.490;13.326;2022-11-15T05:11:38;49.07;;;25.00;;
29380;SDS011;16364;52.490;13.326;2022-11-15T05:14:04;43.77;;;25.60;;
29380;SDS011;16364;52.490;13.326;2022-11-15T05:16:29;47.00;;;26.67;;
29380;SDS011;16364;52.490;13.326;2022-11-15T05:18:54;44.63;;;25.27;;
29380;SDS011;16364;52.490;13.326;2022-11-15T05:21:20;48.40;;;26.37;;
29380;SDS011;16364;52.490;13.326;2022-11-15T05:23:45;45.07;;;26.53;;
29380;SDS011;16364;52.490;13.326;2022-11-15T05:26:11;43.60;;;27.27;;
29380;SDS011;16364;52.490;13.326;2022-11-15T05:28:36;42.40;;;25.93;;
29380;SDS011;16364;52.490;13.326;2022-11-15T05:31:05;40.97;;;24.43;;
29380;SDS011;16364;52.490;13.326;2022-11-15T05:33:31;47.30;;;25.97;;
29380;SDS011;16364;52.490;13.326;2022-11-15T05:38:34;48.67;;;27.90;;
29380;SDS011;16364;52.490;13.326;2022-11-15T05:41:00;43.17;;;25.27;;
29380;SDS011;16364;52.490;13.326;2022-11-15T05:43:25;40.30;;;23.80;;
29380;SDS011;16364;52.490;13.326;2022-11-15T05:45:51;41.33;;;25.63;;
29380;SDS011;16364;52.490;13.326;2022-11-15T05:48:16;42.77;;;24.57;;
29380;SDS011;16364;52.490;13.326;2022-11-15T05:50:42;47.27;;;27.23;;
29380;SDS011;16364;52.490;13.326;2022-11-15T05:53:10;48.67;;;27.77;;
29380;SDS011;16364;52.490;13.326;2022-11-15T05:55:37;42.73;;;26.27;;
29380;SDS011;16364;52.490;13.326;2022-11-15T05:58:02;43.40;;;25.57;;
29380;SDS011;16364;52.490;13.326;2022-11-15T06:00:28;47.73;;;25.30;;
29380;SDS011;16364;52.490;13.326;2022-11-15T06:02:53;44.63;;;26.40;;
29380;SDS011;16364;52.490;13.326;2022-11-15T06:05:18;40.27;;;25.40;;
29380;SDS011;16364;52.490;13.326;2022-11-15T06:07:43;41.43;;;23.77;;
29380;SDS011;16364;52.490;13.326;2022-11-15T06:10:09;46.07;;;26.30;;
29380;SDS011;16364;52.490;13.326;2022-11-15T06:12:34;41.93;;;24.17;;
29380;SDS011;16364;52.490;13.326;2022-11-15T06:14:59;42.47;;;25.07;;
29380;SDS011;16364;52.490;13.326;2022-11-15T06:17:24;45.93;;;25.70;;
29380;SDS011;16364;52.490;13.326;2022-11-15T06:19:50;54.03;;;26.00;;
29380;SDS011;16364;52.490;13.326;2022-11-15T06:22:15;48.97;;;27.83;;
29380;SDS011;16364;52.490;13.326;2022-11-15T06:24:40;43.57;;;24.90;;
29380;SDS011;16364;52.490;13.326;2022-11-15T06:27:05;39.30;;;24.40;;
29380;SDS011;16364;52.490;13.326;2022-11-15T06:29:30;40.40;;;24.30;;
29380;SDS011;16364;52.490;13.326;2022-11-15T06:31:56;44.07;;;26.30;;
29380;SDS011;16364;52.490;13.326;2022-11-15T06:34:21;43.80;;;25.57;;
29380;SDS011;16364;52.490;13.326;2022-11-15T06:36:46;43.37;;;26.83;;
29380;SDS011;16364;52.490;13.326;2022-11-15T06:39:11;43.77;;;27.03;;
29380;SDS011;16364;52.490;13.326;2022-11-15T06:41:37;46.33;;;26.43;;
29380;SDS011;16364;52.490;13.326;2022-11-15T06:44:02;45.00;;;25.50;;
29380;SDS011;16364;52.490;13.326;2022-11-15T06:46:27;52.10;;;27.37;;
29380;SDS011;16364;52.490;13.326;2022-11-15T06:48:53;49.80;;;27.00;;
29380;SDS011;16364;52.490;13.326;2022-11-15T06:51:18;48.73;;;28.57;;
29380;SDS011;16364;52.490;13.326;2022-11-15T06:53:43;48.67;;;29.87;;
29380;SDS011;16364;52.490;13.326;2022-11-15T06:56:09;44.83;;;26.20;;
29380;SDS011;16364;52.490;13.326;2022-11-15T06:58:35;42.57;;;26.27;;
29380;SDS011;16364;52.490;13.326;2022-11-15T07:01:05;50.23;;;28.57;;
29380;SDS011;16364;52.490;13.326;2022-11-15T07:03:30;45.90;;;26.97;;
29380;SDS011;16364;52.490;13.326;2022-11-15T07:05:56;46.90;;;25.53;;
29380;SDS011;16364;52.490;13.326;2022-11-15T07:08:22;41.67;;;25.17;;
29380;SDS011;16364;52.490;13.326;2022-11-15T07:10:47;40.80;;;24.90;;
29380;SDS011;16364;52.490;13.326;2022-11-15T07:13:13;47.60;;;28.20;;
29380;SDS011;16364;52.490;13.326;2022-11-15T07:15:38;43.00;;;25.10;;
29380;SDS011;16364;52.490;13.326;2022-11-15T07:18:03;46.20;;;25.03;;
29380;SDS011;16364;52.490;13.326;2022-11-15T07:20:29;43.67;;;26.50;;
29380;SDS011;16364;52.490;13.326;2022-11-15T07:23:00;47.43;;;28.07;;
29380;SDS011;16364;52.490;13.326;2022-11-15T07:25:27;44.30;;;26.13;;
29380;SDS011;16364;52.490;13.326;2022-11-15T07:27:55;43.50;;;25.77;;
29380;SDS011;16364;52.490;13.326;2022-11-15T07:30:20;46.00;;;26.83;;
29380;SDS011;16364;52.490;13.326;2022-11-15T07:32:46;47.73;;;26.70;;
29380;SDS011;16364;52.490;13.326;2022-11-15T07:35:11;39.53;;;24.97;;
29380;SDS011;16364;52.490;13.326;2022-11-15T07:37:37;49.57;;;24.80;;
29380;SDS011;16364;52.490;13.326;2022-11-15T07:40:02;40.63;;;24.70;;
29380;SDS011;16364;52.490;13.326;2022-11-15T07:42:27;41.13;;;25.00;;
29380;SDS011;16364;52.490;13.326;2022-11-15T07:45:11;45.30;;;28.13;;
29380;SDS011;16364;52.490;13.326;2022-11-15T07:47:37;40.43;;;25.30;;
29380;SDS011;16364;52.490;13.326;2022-11-15T07:50:02;48.30;;;26.20;;
29380;SDS011;16364;52.490;13.326;2022-11-15T07:52:27;39.07;;;24.47;;
29380;SDS011;16364;52.490;13.326;2022-11-15T07:54:53;36.83;;;24.60;;
29380;SDS011;16364;52.490;13.326;2022-11-15T07:57:18;44.67;;;27.33;;
29380;SDS011;16364;52.490;13.326;2022-11-15T07:59:43;49.57;;;28.20;;
29380;SDS011;16364;52.490;13.326;2022-11-15T08:02:08;41.47;;;24.20;;
29380;SDS011;16364;52.490;13.326;2022-11-15T08:04:34;42.97;;;26.10;;
29380;SDS011;16364;52.490;13.326;2022-11-15T08:06:59;38.80;;;24.77;;
29380;SDS011;16364;52.490;13.326;2022-11-15T08:09:24;43.00;;;26.43;;
29380;SDS011;16364;52.490;13.326;2022-11-15T08:11:49;40.17;;;25.03;;
29380;SDS011;16364;52.490;13.326;2022-11-15T08:14:15;44.50;;;28.30;;
29380;SDS011;16364;52.490;13.326;2022-11-15T08:16:40;41.97;;;26.30;;
29380;SDS011;16364;52.490;13.326;2022-11-15T08:19:05;43.10;;;26.83;;
29380;SDS011;16364;52.490;13.326;2022-11-15T08:21:30;42.27;;;25.47;;
29380;SDS011;16364;52.490;13.326;2022-11-15T08:23:56;42.90;;;26.00;;
29380;SDS011;16364;52.490;13.326;2022-11-15T08:26:21;42.00;;;24.77;;
29380;SDS011;16364;52.490;13.326;2022-11-15T08:28:46;38.33;;;24.23;;
29380;SDS011;16364;52.490;13.326;2022-11-15T08:31:15;41.53;;;24.33;;
29380;SDS011;16364;52.490;13.326;2022-11-15T08:33:42;39.08;;;26.63;;
29380;SDS011;16364;52.490;13.326;2022-11-15T08:36:10;38.97;;;24.40;;
29380;SDS011;16364;52.490;13.326;2022-11-15T08:38:36;40.67;;;24.80;;
29380;SDS011;16364;52.490;13.326;2022-11-15T08:41:02;37.03;;;24.73;;
29380;SDS011;16364;52.490;13.326;2022-11-15T08:43:28;41.38;;;27.42;;
29380;SDS011;16364;52.490;13.326;2022-11-15T08:45:55;39.37;;;25.67;;
29380;SDS011;16364;52.490;13.326;2022-11-15T08:48:20;38.67;;;25.33;;
29380;SDS011;16364;52.490;13.326;2022-11-15T08:50:45;39.77;;;28.33;;
29380;SDS011;16364;52.490;13.326;2022-11-15T08:53:11;37.30;;;24.87;;
29380;SDS011;16364;52.490;13.326;2022-11-15T08:55:36;38.10;;;23.90;;
29380;SDS011;16364;52.490;13.326;2022-11-15T08:58:02;35.90;;;22.93;;
29380;SDS011;16364;52.490;13.326;2022-11-15T09:00:27;33.30;;;22.50;;
29380;SDS011;16364;52.490;13.326;2022-11-15T09:02:52;33.43;;;21.70;;
29380;SDS011;16364;52.490;13.326;2022-11-15T09:05:18;30.87;;;21.37;;
29380;SDS011;16364;52.490;13.326;2022-11-15T09:07:43;33.87;;;22.33;;
29380;SDS011;16364;52.490;13.326;2022-11-15T09:10:09;36.27;;;25.70;;
29380;SDS011;16364;52.490;13.326;2022-11-15T09:12:34;33.00;;;21.50;;
29380;SDS011;16364;52.490;13.326;2022-11-15T09:15:00;33.88;;;22.90;;
29380;SDS011;16364;52.490;13.326;2022-11-15T09:17:25;31.87;;;20.93;;
29380;SDS011;16364;52.490;13.326;2022-11-15T09:19:50;29.50;;;19.70;;
29380;SDS011;16364;52.490;13.326;2022-11-15T09:22:16;25.07;;;18.73;;
29380;SDS011;16364;52.490;13.326;2022-11-15T09:24:41;28.73;;;19.83;;
29380;SDS011;16364;52.490;13.326;2022-11-15T09:27:06;32.37;;;21.00;;
29380;SDS011;16364;52.490;13.326;2022-11-15T09:29:31;24.17;;;17.83;;
29380;SDS011;16364;52.490;13.326;2022-11-15T09:31:56;29.70;;;19.80;;
29380;SDS011;16364;52.490;13.326;2022-11-15T09:34:22;24.50;;;17.77;;
29380;SDS011;16364;52.490;13.326;2022-11-15T09:36:47;29.70;;;17.30;;
29380;SDS011;16364;52.490;13.326;2022-11-15T09:39:12;22.97;;;15.10;;
29380;SDS011;16364;52.490;13.326;2022-11-15T09:46:51;26.90;;;17.57;;
29380;SDS011;16364;52.490;13.326;2022-11-15T09:49:20;22.83;;;16.00;;
29380;SDS011;16364;52.490;13.326;2022-11-15T09:51:47;22.73;;;16.53;;
29380;SDS011;16364;52.490;13.326;2022-11-15T10:04:30;20.53;;;14.50;;
29380;SDS011;16364;52.490;13.326;2022-11-15T10:09:36;19.13;;;13.33;;
29380;SDS011;16364;52.490;13.326;2022-11-15T10:12:02;27.37;;;15.70;;
29380;SDS011;16364;52.490;13.326;2022-11-15T10:14:28;24.87;;;16.00;;
29380;SDS011;16364;52.490;13.326;2022-11-15T10:17:04;21.53;;;14.63;;
29380;SDS011;16364;52.490;13.326;2022-11-15T10:24:39;22.87;;;15.63;;
29380;SDS011;16364;52.490;13.326;2022-11-15T10:27:10;18.57;;;13.30;;
29380;SDS011;16364;52.490;13.326;2022-11-15T10:29:36;21.13;;;14.03;;
29380;SDS011;16364;52.490;13.326;2022-11-15T10:32:07;20.40;;;13.87;;
29380;SDS011;16364;52.490;13.326;2022-11-15T10:34:34;23.50;;;15.53;;
29380;SDS011;16364;52.490;13.326;2022-11-15T10:37:00;23.03;;;14.30;;
29380;SDS011;16364;52.490;13.326;2022-11-15T10:39:28;18.10;;;13.30;;
29380;SDS011;16364;52.490;13.326;2022-11-15T10:41:54;20.27;;;13.57;;
29380;SDS011;16364;52.490;13.326;2022-11-15T10:44:26;20.83;;;15.00;;
29380;SDS011;16364;52.490;13.326;2022-11-15T10:49:21;18.57;;;12.30;;
29380;SDS011;16364;52.490;13.326;2022-11-15T10:51:47;22.80;;;13.80;;
29380;SDS011;16364;52.490;13.326;2022-11-15T10:54:14;20.60;;;14.60;;
29380;SDS011;16364;52.490;13.326;2022-11-15T10:56:41;15.50;;;12.10;;
29380;SDS011;16364;52.490;13.326;2022-11-15T10:59:13;23.97;;;12.97;;
29380;SDS011;16364;52.490;13.326;2022-11-15T11:01:45;17.40;;;13.00;;
29380;SDS011;16364;52.490;13.326;2022-11-15T11:04:10;16.73;;;11.23;;
29380;SDS011;16364;52.490;13.326;2022-11-15T11:06:52;16.07;;;12.27;;
29380;SDS011;16364;52.490;13.326;2022-11-15T11:09:38;28.07;;;14.53;;
29380;SDS011;16364;52.490;13.326;2022-11-15T11:12:03;20.03;;;12.40;;
29380;SDS011;16364;52.490;13.326;2022-11-15T11:14:30;17.63;;;12.87;;
29380;SDS011;16364;52.490;13.326;2022-11-15T11:17:02;22.50;;;15.30;;
29380;SDS011;16364;52.490;13.326;2022-11-15T11:24:43;17.83;;;13.93;;
29380;SDS011;16364;52.490;13.326;2022-11-15T11:27:29;17.30;;;12.80;;
29380;SDS011;16364;52.490;13.326;2022-11-15T11:30:06;16.23;;;12.23;;
29380;SDS011;16364;52.490;13.326;2022-11-15T11:40:30;19.13;;;12.10;;
29380;SDS011;16364;52.490;13.326;2022-11-15T11:43:04;15.17;;;11.80;;
29380;SDS011;16364;52.490;13.326;2022-11-15T11:45:52;16.50;;;12.73;;
29380;SDS011;16364;52.490;13.326;2022-11-15T11:50:53;16.53;;;13.23;;
29380;SDS011;16364;52.490;13.326;2022-11-15T11:53:29;19.10;;;12.73;;
29380;SDS011;16364;52.490;13.326;2022-11-15T11:55:56;14.93;;;11.93;;
29380;SDS011;16364;52.490;13.326;2022-11-15T11:58:34;18.93;;;12.57;;
29380;SDS011;16364;52.490;13.326;2022-11-15T12:06:01;15.90;;;12.53;;
29380;SDS011;16364;52.490;13.326;2022-11-15T12:08:32;15.70;;;12.13;;
29380;SDS011;16364;52.490;13.326;2022-11-15T12:13:29;15.57;;;10.50;;
29380;SDS011;16364;52.490;13.326;2022-11-15T12:16:06;18.67;;;13.20;;
29380;SDS011;16364;52.490;13.326;2022-11-15T12:18:32;10.50;;;8.53;;
29380;SDS011;16364;52.490;13.326;2022-11-15T12:23:32;16.40;;;11.17;;
29380;SDS011;16364;52.490;13.326;2022-11-15T12:26:10;10.37;;;8.43;;
29380;SDS011;16364;52.490;13.326;2022-11-15T12:31:52;10.07;;;9.00;;
29380;SDS011;16364;52.490;13.326;2022-11-15T12:33:58;9.00;;;7.83;;
29380;SDS011;16364;52.490;13.326;2022-11-15T12:38:52;10.40;;;9.30;;
29380;SDS011;16364;52.490;13.326;2022-11-15T12:41:24;8.80;;;8.07;;
29380;SDS011;16364;52.490;13.326;2022-11-15T12:43:50;9.77;;;7.70;;
29380;SDS011;16364;52.490;13.326;2022-11-15T12:51:06;8.67;;;7.47;;
29380;SDS011;16364;52.490;13.326;2022-11-15T12:53:32;8.73;;;7.93;;
29380;SDS011;16364;52.490;13.326;2022-11-15T12:58:48;12.83;;;7.73;;
29380;SDS011;16364;52.490;13.326;2022-11-15T13:06:43;9.47;;;8.57;;
29380;SDS011;16364;52.490;13.326;2022-11-15T13:11:52;12.67;;;11.40;;
29380;SDS011;16364;52.490;13.326;2022-11-15T13:17:02;10.50;;;9.40;;
29380;SDS011;16364;52.490;13.326;2022-11-15T13:19:27;11.93;;;9.30;;
29380;SDS011;16364;52.490;13.326;2022-11-15T13:21:53;11.60;;;8.97;;
29380;SDS011;16364;52.490;13.326;2022-11-15T13:24:37;9.77;;;8.80;;
29380;SDS011;16364;52.490;13.326;2022-11-15T13:27:10;10.10;;;8.90;;
29380;SDS011;16364;52.490;13.326;2022-11-15T13:29:35;11.63;;;9.10;;
29380;SDS011;16364;52.490;13.326;2022-11-15T13:32:01;10.43;;;9.27;;
29380;SDS011;16364;52.490;13.326;2022-11-15T13:34:30;10.10;;;9.00;;
29380;SDS011;16364;52.490;13.326;2022-11-15T13:36:58;9.97;;;8.83;;
29380;SDS011;16364;52.490;13.326;2022-11-15T13:39:25;11.73;;;10.57;;
29380;SDS011;16364;52.490;13.326;2022-11-15T13:41:51;12.53;;;10.47;;
29380;SDS011;16364;52.490;13.326;2022-11-15T13:44:19;10.20;;;9.30;;
29380;SDS011;16364;52.490;13.326;2022-11-15T13:46:44;14.63;;;12.67;;
29380;SDS011;16364;52.490;13.326;2022-11-15T13:49:09;15.30;;;11.70;;
29380;SDS011;16364;52.490;13.326;2022-11-15T13:56:27;13.60;;;11.57;;
29380;SDS011;16364;52.490;13.326;2022-11-15T13:58:52;14.33;;;10.87;;
29380;SDS011;16364;52.490;13.326;2022-11-15T14:01:19;15.27;;;11.20;;
29380;SDS011;16364;52.490;13.326;2022-11-15T14:03:47;15.30;;;12.10;;
29380;SDS011;16364;52.490;13.326;2022-11-15T14:06:15;12.20;;;11.00;;
29380;SDS011;16364;52.490;13.326;2022-11-15T14:11:26;13.77;;;12.37;;
29380;SDS011;16364;52.490;13.326;2022-11-15T14:16:32;13.97;;;11.40;;
29380;SDS011;16364;52.490;13.326;2022-11-15T14:18:57;15.37;;;11.47;;
29380;SDS011;16364;52.490;13.326;2022-11-15T14:21:22;17.50;;;13.17;;
29380;SDS011;16364;52.490;13.326;2022-11-15T14:23:47;14.07;;;11.90;;
29380;SDS011;16364;52.490;13.326;2022-11-15T14:28:54;13.27;;;11.73;;
29380;SDS011;16364;52.490;13.326;2022-11-15T14:31:19;15.57;;;13.00;;
29380;SDS011;16364;52.490;13.326;2022-11-15T14:33:45;15.87;;;12.60;;
29380;SDS011;16364;52.490;13.326;2022-11-15T14:36:20;16.30;;;12.67;;
29380;SDS011;16364;52.490;13.326;2022-11-15T14:38:46;15.43;;;12.10;;
29380;SDS011;16364;52.490;13.326;2022-11-15T14:41:21;19.17;;;12.83;;
29380;SDS011;16364;52.490;13.326;2022-11-15T14:43:47;17.75;;;13.70;;
29380;SDS011;16364;52.490;13.326;2022-11-15T14:46:12;18.13;;;12.87;;
29380;SDS011;16364;52.490;13.326;2022-11-15T14:48:37;15.47;;;12.80;;
29380;SDS011;16364;52.490;13.326;2022-11-15T14:51:03;14.63;;;12.13;;
29380;SDS011;16364;52.490;13.326;2022-11-15T14:53:28;17.67;;;12.73;;
29380;SDS011;16364;52.490;13.326;2022-11-15T14:55:53;15.70;;;12.13;;
29380;SDS011;16364;52.490;13.326;2022-11-15T14:58:18;17.20;;;11.53;;
29380;SDS011;16364;52.490;13.326;2022-11-15T15:00:44;17.27;;;12.23;;
29380;SDS011;16364;52.490;13.326;2022-11-15T15:03:09;17.17;;;13.60;;
29380;SDS011;16364;52.490;13.326;2022-11-15T15:05:38;17.23;;;11.83;;
29380;SDS011;16364;52.490;13.326;2022-11-15T15:08:04;16.93;;;12.80;;
29380;SDS011;16364;52.490;13.326;2022-11-15T15:10:34;16.37;;;12.40;;
29380;SDS011;16364;52.490;13.326;2022-11-15T15:12:59;17.37;;;13.27;;
29380;SDS011;16364;52.490;13.326;2022-11-15T15:15:25;15.80;;;12.40;;
29380;SDS011;16364;52.490;13.326;2022-11-15T15:17:51;16.77;;;11.37;;
29380;SDS011;16364;52.490;13.326;2022-11-15T15:20:16;14.70;;;12.00;;
29380;SDS011;16364;52.490;13.326;2022-11-15T15:22:42;18.30;;;12.83;;
29380;SDS011;16364;52.490;13.326;2022-11-15T15:25:20;18.17;;;14.07;;
29380;SDS011;16364;52.490;13.326;2022-11-15T15:27:46;16.73;;;13.03;;
29380;SDS011;16364;52.490;13.326;2022-11-15T15:30:12;21.80;;;13.10;;
29380;SDS011;16364;52.490;13.326;2022-11-15T15:32:37;17.60;;;13.93;;
29380;SDS011;16364;52.490;13.326;2022-11-15T15:35:02;17.87;;;13.30;;
29380;SDS011;16364;52.490;13.326;2022-11-15T15:37:27;18.83;;;13.23;;
29380;SDS011;16364;52.490;13.326;2022-11-15T15:39:54;17.83;;;14.33;;
29380;SDS011;16364;52.490;13.326;2022-11-15T15:42:20;21.23;;;15.50;;
29380;SDS011;16364;52.490;13.326;2022-11-15T15:44:46;20.90;;;14.27;;
29380;SDS011;16364;52.490;13.326;2022-11-15T15:47:15;18.70;;;14.33;;
29380;SDS011;16364;52.490;13.326;2022-11-15T15:49:41;21.60;;;14.40;;
29380;SDS011;16364;52.490;13.326;2022-11-15T15:52:06;20.57;;;13.43;;
29380;SDS011;16364;52.490;13.326;2022-11-15T15:54:32;19.53;;;14.43;;
29380;SDS011;16364;52.490;13.326;2022-11-15T15:56:57;20.17;;;15.07;;
29380;SDS011;16364;52.490;13.326;2022-11-15T15:59:22;19.80;;;14.30;;
29380;SDS011;16364;52.490;13.326;2022-11-15T16:01:47;20.57;;;14.30;;
29380;SDS011;16364;52.490;13.326;2022-11-15T16:04:13;21.70;;;13.67;;
29380;SDS011;16364;52.490;13.326;2022-11-15T16:06:39;23.83;;;15.03;;
29380;SDS011;16364;52.490;13.326;2022-11-15T16:09:08;21.87;;;16.00;;
29380;SDS011;16364;52.490;13.326;2022-11-15T16:11:35;20.23;;;15.03;;